Time,TemperatureF,DewpointF,PressureIn,WindDirection,WindDirectionDegrees,WindSpeedMPH,WindSpeedGustMPH,Humidity,HourlyPrecipIn,Conditions,Clouds,dailyrainin,SoftwareType,DateUTC
2013-03-05 00:01:00,63.0,50.0,29.74,North,4,8.0,13.0,62,0.00,,,-99.99,,2013-03-05 06:01:00,
2013-03-05 00:11:00,63.0,50.0,29.74,North,4,8.0,13.0,62,0.00,,,-99.99,,2013-03-05 06:11:00,
2013-03-05 00:22:00,63.0,47.0,29.74,North,2,5.0,13.0,55,0.00,,,-99.99,,2013-03-05 06:22:00,
2013-03-05 00:31:00,63.0,46.0,29.76,NNW,343,6.0,14.0,54,0.00,,,-99.99,,2013-03-05 06:31:00,
2013-03-05 00:41:00,63.0,46.0,29.76,NNW,343,6.0,14.0,54,0.00,,,-99.99,,2013-03-05 06:41:00,
2013-03-05 00:52:00,62.0,46.0,29.78,North,356,9.0,19.0,56,0.00,,,-99.99,,2013-03-05 06:52:00,
2013-03-05 01:01:00,58.0,45.0,29.82,NNW,339,7.0,17.0,62,0.00,,,-99.99,,2013-03-05 07:01:00,
2013-03-05 01:11:00,58.0,45.0,29.82,NNW,339,7.0,17.0,62,0.00,,,-99.99,,2013-03-05 07:11:00,
2013-03-05 01:22:00,56.0,44.0,29.81,North,1,8.0,16.0,63,0.00,,,-99.99,,2013-03-05 07:22:00,
2013-03-05 01:31:00,55.0,43.0,29.84,NNW,338,7.0,13.0,65,0.00,,,-99.99,,2013-03-05 07:31:00,
2013-03-05 01:41:00,55.0,43.0,29.84,NNW,338,7.0,13.0,65,0.00,,,-99.99,,2013-03-05 07:41:00,
2013-03-05 01:52:00,54.0,43.0,29.89,NNW,340,9.0,17.0,65,0.00,,,-99.99,,2013-03-05 07:52:00,
2013-03-05 02:02:00,52.0,42.0,29.91,NNW,338,11.0,19.0,68,0.00,,,-99.99,,2013-03-05 08:02:00,
2013-03-05 02:11:00,52.0,42.0,29.91,NNW,338,11.0,19.0,68,0.00,,,-99.99,,2013-03-05 08:11:00,
2013-03-05 02:21:00,51.0,42.0,29.92,NNW,339,10.0,21.0,70,0.00,,,-99.99,,2013-03-05 08:21:00,
2013-03-05 02:31:00,50.0,40.0,29.95,NNW,339,13.0,23.0,69,0.00,,,-99.99,,2013-03-05 08:31:00,
2013-03-05 02:41:00,50.0,40.0,29.95,NNW,339,13.0,23.0,69,0.00,,,-99.99,,2013-03-05 08:41:00,
2013-03-05 02:52:00,50.0,40.0,29.96,NNW,338,8.0,19.0,69,0.00,,,-99.99,,2013-03-05 08:52:00,
2013-03-05 03:01:00,50.0,39.0,29.97,NNW,344,14.0,21.0,67,0.00,,,-99.99,,2013-03-05 09:01:00,
2013-03-05 03:11:00,50.0,39.0,29.97,NNW,344,14.0,21.0,67,0.00,,,-99.99,,2013-03-05 09:11:00,
2013-03-05 03:21:00,49.0,38.0,29.95,NNW,343,11.0,25.0,66,0.00,,,-99.99,,2013-03-05 09:21:00,
2013-03-05 03:31:00,49.0,38.0,29.97,NNW,344,7.0,21.0,66,0.00,,,-99.99,,2013-03-05 09:31:00,
2013-03-05 03:42:00,49.0,38.0,29.97,NNW,344,7.0,21.0,66,0.00,,,-99.99,,2013-03-05 09:42:00,
2013-03-05 03:52:00,49.0,36.0,30.03,NNW,342,8.0,19.0,61,0.00,,,-99.99,,2013-03-05 09:52:00,
2013-03-05 04:01:00,50.0,36.0,30.07,NNW,332,7.0,17.0,59,0.00,,,-99.99,,2013-03-05 10:01:00,
2013-03-05 04:11:00,50.0,36.0,30.07,NNW,332,7.0,17.0,59,0.00,,,-99.99,,2013-03-05 10:11:00,
2013-03-05 04:21:00,50.0,36.0,30.06,NNW,336,9.0,19.0,59,0.00,,,-99.99,,2013-03-05 10:21:00,
2013-03-05 04:32:00,50.0,36.0,30.07,NNW,348,7.0,16.0,59,0.00,,,-99.99,,2013-03-05 10:32:00,
2013-03-05 04:42:00,50.0,36.0,30.07,NNW,348,7.0,16.0,59,0.00,,,-99.99,,2013-03-05 10:42:00,
2013-03-05 04:52:00,49.0,35.0,30.09,NNW,346,5.0,16.0,59,0.00,,,-99.99,,2013-03-05 10:52:00,
2013-03-05 05:01:00,49.0,36.0,30.10,North,359,8.0,17.0,61,0.00,,,-99.99,,2013-03-05 11:01:00,
2013-03-05 05:11:00,49.0,36.0,30.10,North,359,8.0,17.0,61,0.00,,,-99.99,,2013-03-05 11:11:00,
2013-03-05 05:22:00,48.0,36.0,30.11,North,359,9.0,17.0,62,0.00,,,-99.99,,2013-03-05 11:22:00,
2013-03-05 05:32:00,48.0,37.0,30.12,NNW,335,7.0,18.0,65,0.00,,,-99.99,,2013-03-05 11:32:00,
2013-03-05 05:42:00,48.0,37.0,30.12,NNW,335,7.0,18.0,65,0.00,,,-99.99,,2013-03-05 11:42:00,
2013-03-05 05:52:00,47.0,36.0,30.12,North,349,7.0,13.0,65,0.00,,,-99.99,,2013-03-05 11:52:00,
2013-03-05 06:02:00,47.0,36.0,30.12,NNW,340,6.0,12.0,66,0.00,,,-99.99,,2013-03-05 12:02:00,
2013-03-05 06:12:00,47.0,36.0,30.12,NNW,340,6.0,12.0,66,0.00,,,-99.99,,2013-03-05 12:12:00,
2013-03-05 06:22:00,47.0,36.0,30.14,NNW,342,4.0,12.0,66,0.00,,,-99.99,,2013-03-05 12:22:00,
2013-03-05 06:32:00,46.0,33.0,30.15,North,350,9.0,18.0,60,0.00,,,-99.99,,2013-03-05 12:32:00,
2013-03-05 06:42:00,46.0,33.0,30.15,North,350,9.0,18.0,60,0.00,,,-99.99,,2013-03-05 12:42:00,
2013-03-05 06:52:00,46.0,31.0,30.16,North,350,8.0,18.0,55,0.00,,,-99.99,,2013-03-05 12:52:00,
2013-03-05 07:02:00,46.0,32.0,30.17,NNW,342,6.0,13.0,58,0.00,,,-99.99,,2013-03-05 13:02:00,
2013-03-05 07:11:00,46.0,32.0,30.17,NNW,342,6.0,13.0,58,0.00,,,-99.99,,2013-03-05 13:11:00,
2013-03-05 07:21:00,45.0,32.0,30.17,NNW,342,7.0,16.0,60,0.00,,,-99.99,,2013-03-05 13:21:00,
2013-03-05 07:32:00,45.0,33.0,30.19,NNW,341,5.0,13.0,62,0.00,,,-99.99,,2013-03-05 13:32:00,
2013-03-05 07:42:00,45.0,33.0,30.19,NNW,341,5.0,13.0,62,0.00,,,-99.99,,2013-03-05 13:42:00,
2013-03-05 07:52:00,45.0,33.0,30.20,NNW,340,7.0,14.0,62,0.00,,,-99.99,,2013-03-05 13:52:00,
2013-03-05 08:02:00,46.0,32.0,30.22,NNW,334,10.0,17.0,59,0.00,,,-99.99,,2013-03-05 14:02:00,
2013-03-05 08:11:00,46.0,32.0,30.22,NNW,334,10.0,17.0,59,0.00,,,-99.99,,2013-03-05 14:11:00,
2013-03-05 08:21:00,46.0,32.0,30.22,NNW,347,8.0,13.0,58,0.00,,,-99.99,,2013-03-05 14:21:00,
2013-03-05 08:32:00,46.0,32.0,30.24,NNW,335,8.0,16.0,58,0.00,,,-99.99,,2013-03-05 14:32:00,
2013-03-05 08:42:00,46.0,32.0,30.24,NNW,335,8.0,16.0,58,0.00,,,-99.99,,2013-03-05 14:42:00,
2013-03-05 08:52:00,47.0,32.0,30.24,NNW,343,7.0,16.0,55,0.00,,,-99.99,,2013-03-05 14:52:00,
2013-03-05 09:01:00,47.0,29.0,30.24,NNW,336,11.0,18.0,50,0.00,,,-99.99,,2013-03-05 15:01:00,
2013-03-05 09:11:00,47.0,29.0,30.24,NNW,336,11.0,18.0,50,0.00,,,-99.99,,2013-03-05 15:11:00,
2013-03-05 09:21:00,48.0,30.0,30.24,NNW,343,10.0,17.0,49,0.00,,,0.00,,2013-03-05 15:21:00,
2013-03-05 09:32:00,49.0,30.0,30.25,NNW,332,7.0,18.0,47,0.00,,,0.00,,2013-03-05 15:32:00,
2013-03-05 09:42:00,49.0,30.0,30.25,NNW,332,7.0,18.0,47,0.00,,,0.00,,2013-03-05 15:42:00,
2013-03-05 09:52:00,49.0,29.0,30.26,NNW,341,9.0,20.0,45,0.00,,,0.00,,2013-03-05 15:52:00,
2013-03-05 10:01:00,49.0,29.0,30.27,NNW,330,9.0,18.0,45,0.00,,,0.00,,2013-03-05 16:01:00,
2013-03-05 10:11:00,49.0,29.0,30.27,NNW,330,9.0,18.0,45,0.00,,,0.00,,2013-03-05 16:11:00,
2013-03-05 10:21:00,49.0,27.0,30.27,NNW,331,8.0,14.0,43,0.00,,,0.00,,2013-03-05 16:21:00,
2013-03-05 10:32:00,50.0,28.0,30.29,NNW,332,10.0,20.0,42,0.00,,,0.00,,2013-03-05 16:32:00,
2013-03-05 10:42:00,50.0,28.0,30.29,NNW,332,10.0,20.0,42,0.00,,,0.00,,2013-03-05 16:42:00,
2013-03-05 10:52:00,50.0,27.0,30.30,NNW,337,8.0,16.0,41,0.00,,,0.00,,2013-03-05 16:52:00,
2013-03-05 11:01:00,50.0,26.0,30.31,NNW,333,10.0,17.0,39,0.00,,,0.00,,2013-03-05 17:01:00,
2013-03-05 11:11:00,50.0,26.0,30.31,NNW,333,10.0,17.0,39,0.00,,,0.00,,2013-03-05 17:11:00,
2013-03-05 11:21:00,51.0,26.0,30.31,North,349,7.0,19.0,37,0.00,,,0.00,,2013-03-05 17:21:00,
2013-03-05 11:32:00,52.0,25.0,30.32,NNW,332,7.0,16.0,35,0.00,,,0.00,,2013-03-05 17:32:00,
2013-03-05 11:42:00,52.0,25.0,30.32,NNW,332,7.0,16.0,35,0.00,,,0.00,,2013-03-05 17:42:00,
2013-03-05 11:52:00,52.0,24.0,30.31,NNW,339,9.0,18.0,33,0.00,,,0.00,,2013-03-05 17:52:00,
2013-03-05 12:01:00,53.0,26.0,30.31,NNW,346,8.0,13.0,35,0.00,,,0.00,,2013-03-05 18:01:00,
2013-03-05 12:11:00,53.0,26.0,30.31,NNW,346,8.0,13.0,35,0.00,,,0.00,,2013-03-05 18:11:00,
2013-03-05 12:21:00,52.0,25.0,30.31,NNW,336,10.0,19.0,35,0.00,,,0.00,,2013-03-05 18:21:00,
2013-03-05 12:32:00,53.0,25.0,30.31,NNW,336,5.0,17.0,34,0.00,,,0.00,,2013-03-05 18:32:00,
2013-03-05 12:42:00,53.0,25.0,30.31,NNW,336,5.0,17.0,34,0.00,,,0.00,,2013-03-05 18:42:00,
2013-03-05 12:53:00,54.0,26.0,30.31,NNW,330,8.0,15.0,34,0.00,,,0.00,,2013-03-05 18:53:00,
2013-03-05 13:01:00,54.0,26.0,30.30,NNW,342,7.0,15.0,34,0.00,,,0.00,,2013-03-05 19:01:00,
2013-03-05 13:11:00,54.0,26.0,30.30,NNW,342,7.0,15.0,34,0.00,,,0.00,,2013-03-05 19:11:00,
2013-03-05 13:21:00,54.0,26.0,30.30,NNW,339,7.0,17.0,33,0.00,,,0.00,,2013-03-05 19:21:00,
2013-03-05 13:32:00,55.0,26.0,30.29,NNW,337,7.0,15.0,32,0.00,,,0.00,,2013-03-05 19:32:00,
2013-03-05 13:42:00,55.0,26.0,30.29,NNW,337,7.0,15.0,32,0.00,,,0.00,,2013-03-05 19:42:00,
2013-03-05 13:52:00,55.0,26.0,30.29,NNW,332,6.0,15.0,33,0.00,,,0.00,,2013-03-05 19:52:00,
2013-03-05 14:01:00,55.0,24.0,30.28,NNW,339,10.0,19.0,30,0.00,,,0.00,,2013-03-05 20:01:00,
2013-03-05 14:11:00,55.0,24.0,30.28,NNW,330,7.0,16.0,30,0.00,,,0.00,,2013-03-05 20:11:00,
2013-03-05 14:21:00,55.0,24.0,30.28,NNW,330,7.0,16.0,30,0.00,,,0.00,,2013-03-05 20:21:00,
2013-03-05 14:32:00,56.0,25.0,30.27,NNW,337,9.0,16.0,30,0.00,,,0.00,,2013-03-05 20:32:00,
2013-03-05 14:41:00,56.0,25.0,30.27,NNW,337,9.0,16.0,30,0.00,,,0.00,,2013-03-05 20:41:00,
2013-03-05 14:52:00,56.0,23.0,30.27,NNW,334,8.0,13.0,28,0.00,,,0.00,,2013-03-05 20:52:00,
2013-03-05 15:01:00,56.0,24.0,30.26,NNW,329,8.0,15.0,29,0.00,,,0.00,,2013-03-05 21:01:00,
2013-03-05 15:11:00,56.0,24.0,30.26,NNW,329,8.0,15.0,29,0.00,,,0.00,,2013-03-05 21:11:00,
2013-03-05 15:21:00,56.0,24.0,30.27,NNW,338,9.0,18.0,29,0.00,,,0.00,,2013-03-05 21:21:00,
2013-03-05 15:31:00,56.0,23.0,30.26,NNW,337,8.0,18.0,28,0.00,,,0.00,,2013-03-05 21:31:00,
2013-03-05 15:42:00,56.0,23.0,30.26,NNW,337,8.0,18.0,28,0.00,,,0.00,,2013-03-05 21:42:00,
2013-03-05 15:52:00,56.0,24.0,30.26,NW,305,6.0,17.0,29,0.00,,,0.00,,2013-03-05 21:52:00,
2013-03-05 16:01:00,57.0,26.0,30.26,NNW,331,6.0,13.0,30,0.00,,,0.00,,2013-03-05 22:01:00,
2013-03-05 16:11:00,57.0,26.0,30.26,NNW,331,6.0,13.0,30,0.00,,,0.00,,2013-03-05 22:11:00,
2013-03-05 16:21:00,57.0,24.0,30.26,NNW,339,8.0,13.0,28,0.00,,,0.00,,2013-03-05 22:21:00,
2013-03-05 16:32:00,56.0,24.0,30.26,NNW,336,8.0,12.0,29,0.00,,,0.00,,2013-03-05 22:32:00,
2013-03-05 16:41:00,56.0,24.0,30.26,NNW,336,8.0,12.0,29,0.00,,,0.00,,2013-03-05 22:41:00,
2013-03-05 16:52:00,56.0,23.0,30.26,NNW,339,7.0,15.0,28,0.00,,,0.00,,2013-03-05 22:52:00,
2013-03-05 17:01:00,57.0,25.0,30.26,NNW,339,7.0,11.0,29,0.00,,,0.00,,2013-03-05 23:01:00,
2013-03-05 17:11:00,57.0,25.0,30.26,NNW,339,7.0,11.0,29,0.00,,,0.00,,2013-03-05 23:11:00,
2013-03-05 17:21:00,56.0,25.0,30.27,NNW,331,5.0,12.0,30,0.00,,,0.00,,2013-03-05 23:21:00,
2013-03-05 17:32:00,56.0,26.0,30.26,NNW,338,5.0,12.0,31,0.00,,,0.00,,2013-03-05 23:32:00,
2013-03-05 17:42:00,56.0,26.0,30.26,NNW,338,5.0,12.0,31,0.00,,,0.00,,2013-03-05 23:42:00,
2013-03-05 17:53:00,55.0,27.0,30.27,NW,326,5.0,11.0,34,0.00,,,0.00,,2013-03-05 23:53:00,
2013-03-05 18:01:00,55.0,26.0,30.27,NNW,341,6.0,12.0,32,0.00,,,0.00,,2013-03-06 00:01:00,
2013-03-05 18:11:00,55.0,26.0,30.27,NNW,341,6.0,12.0,32,0.00,,,0.00,,2013-03-06 00:11:00,
2013-03-05 18:21:00,54.0,26.0,30.27,NNW,337,7.0,13.0,33,0.00,,,0.00,,2013-03-06 00:21:00,
2013-03-05 18:32:00,54.0,26.0,30.27,NNW,332,6.0,12.0,34,0.00,,,0.00,,2013-03-06 00:32:00,
2013-03-05 18:42:00,54.0,26.0,30.27,NNW,332,6.0,12.0,34,0.00,,,0.00,,2013-03-06 00:42:00,
2013-03-05 18:52:00,53.0,25.0,30.27,NW,321,5.0,13.0,34,0.00,,,0.00,,2013-03-06 00:52:00,
2013-03-05 19:01:00,53.0,27.0,30.28,NW,321,3.0,12.0,37,0.00,,,0.00,,2013-03-06 01:01:00,
2013-03-05 19:11:00,53.0,27.0,30.28,NW,321,3.0,12.0,37,0.00,,,0.00,,2013-03-06 01:11:00,
2013-03-05 19:21:00,52.0,27.0,30.29,NW,325,4.0,10.0,37,0.00,,,0.00,,2013-03-06 01:21:00,
2013-03-05 19:32:00,52.0,27.0,30.29,NW,326,2.0,8.0,38,0.00,,,0.00,,2013-03-06 01:32:00,
2013-03-05 19:42:00,52.0,27.0,30.29,NW,326,2.0,8.0,38,0.00,,,0.00,,2013-03-06 01:42:00,
2013-03-05 19:52:00,51.0,28.0,30.29,NW,324,2.0,6.0,40,0.00,,,0.00,,2013-03-06 01:52:00,
2013-03-05 20:01:00,50.0,28.0,30.30,NNW,331,2.0,5.0,42,0.00,,,0.00,,2013-03-06 02:01:00,
2013-03-05 20:11:00,50.0,28.0,30.30,NNW,331,2.0,5.0,42,0.00,,,0.00,,2013-03-06 02:11:00,
2013-03-05 20:22:00,50.0,28.0,30.30,NNW,331,3.0,6.0,42,0.00,,,0.00,,2013-03-06 02:22:00,
2013-03-05 20:32:00,49.0,27.0,30.30,NNW,332,3.0,6.0,43,0.00,,,0.00,,2013-03-06 02:32:00,
2013-03-05 20:42:00,49.0,27.0,30.30,NNW,332,3.0,6.0,43,0.00,,,0.00,,2013-03-06 02:42:00,
2013-03-05 20:52:00,49.0,26.0,30.31,NNW,335,3.0,7.0,41,0.00,,,0.00,,2013-03-06 02:52:00,
2013-03-05 21:01:00,48.0,26.0,30.32,NNW,335,2.0,6.0,42,0.00,,,0.00,,2013-03-06 03:01:00,
2013-03-05 21:11:00,48.0,26.0,30.32,NNW,335,2.0,6.0,42,0.00,,,0.00,,2013-03-06 03:11:00,
2013-03-05 21:22:00,48.0,27.0,30.32,NNW,335,1.0,5.0,43,0.00,,,0.00,,2013-03-06 03:22:00,
2013-03-05 21:32:00,47.0,27.0,30.32,NNW,336,1.0,3.0,45,0.00,,,0.00,,2013-03-06 03:32:00,
2013-03-05 21:42:00,47.0,27.0,30.32,NNW,336,1.0,3.0,45,0.00,,,0.00,,2013-03-06 03:42:00,
2013-03-05 21:52:00,46.0,26.0,30.32,NNW,338,2.0,6.0,45,0.00,,,0.00,,2013-03-06 03:52:00,
2013-03-05 22:02:00,45.0,26.0,30.33,NNW,338,1.0,3.0,47,0.00,,,0.00,,2013-03-06 04:02:00,
2013-03-05 22:11:00,45.0,26.0,30.33,NNW,338,1.0,3.0,47,0.00,,,0.00,,2013-03-06 04:11:00,
2013-03-05 22:21:00,45.0,27.0,30.33,NNW,338,0.0,3.0,48,0.00,,,0.00,,2013-03-06 04:21:00,
2013-03-05 22:32:00,44.0,27.0,30.34,NNW,338,1.0,5.0,50,0.00,,,0.00,,2013-03-06 04:32:00,
2013-03-05 22:41:00,44.0,27.0,30.34,NNW,338,1.0,5.0,50,0.00,,,0.00,,2013-03-06 04:41:00,
2013-03-05 22:52:00,44.0,27.0,30.33,NNW,338,0.0,3.0,51,0.00,,,0.00,,2013-03-06 04:52:00,
2013-03-05 23:01:00,43.0,28.0,30.34,NNW,338,3.0,5.0,54,0.00,,,0.00,,2013-03-06 05:01:00,
2013-03-05 23:11:00,43.0,28.0,30.34,NNW,338,3.0,5.0,54,0.00,,,0.00,,2013-03-06 05:11:00,
2013-03-05 23:22:00,44.0,29.0,30.34,NNW,337,1.0,4.0,55,0.00,,,0.00,,2013-03-06 05:22:00,
2013-03-05 23:32:00,44.0,28.0,30.34,NNW,333,2.0,6.0,52,0.00,,,0.00,,2013-03-06 05:32:00,
2013-03-05 23:42:00,44.0,28.0,30.34,NNW,333,2.0,6.0,52,0.00,,,0.00,,2013-03-06 05:42:00,
2013-03-05 23:52:00,44.0,26.0,30.34,NNW,340,2.0,6.0,49,0.00,,,0.00,,2013-03-06 05:52:00,